Time;durP1;ratioP1;P1;durP2;ratioP2;P2;SDS_P1;SDS_P2;PMS_P1;PMS_P2;Temp;Humidity;BMP_temperature;BMP_pressure;BME280_temperature;BME280_humidity;BME280_pressure;Samples;Min_cycle;Max_cycle;Signal;HPM_P1;HPM_P2
2022/09/01 00:00:49;;;;;;;8.98;8.30;;;;;;;;;;10081819;28;20044;-67
2022/09/01 00:05:49;;;;;;;9.38;8.70;;;;;;;;;;10083408;28;20127;-67
2022/09/01 00:10:46;;;;;;;9.63;8.82;;;;;;;;;;10080161;28;20059;-66
2022/09/01 00:15:42;;;;;;;10.88;10.18;;;;;;;;;;10081764;28;20096;-67
2022/09/01 00:20:39;;;;;;;11.95;11.15;;;;;;;;;;10090720;28;20055;-65
2022/09/01 00:25:35;;;;;;;11.82;11.13;;;;;;;;;;10075295;28;20505;-65
2022/09/01 00:30:32;;;;;;;12.75;11.95;;;;;;;;;;10076636;28;20162;-65
2022/09/01 00:35:28;;;;;;;13.65;12.75;;;;;;;;;;10096731;28;20039;-66
2022/09/01 00:40:24;;;;;;;15.48;14.63;;;;;;;;;;10079309;28;20126;-66
2022/09/01 00:45:21;;;;;;;17.90;16.90;;;;;;;;;;10091367;28;20051;-67
2022/09/01 00:50:19;;;;;;;17.58;16.48;;;;;;;;;;10083070;28;20055;-67
2022/09/01 00:55:17;;;;;;;17.83;16.83;;;;;;;;;;10080913;28;20074;-66
2022/09/01 01:00:16;;;;;;;19.88;18.67;;;;;;;;;;10090392;28;20101;-66
2022/09/01 01:05:13;;;;;;;19.23;18.13;;;;;;;;;;10083912;28;20076;-67
2022/09/01 01:10:11;;;;;;;23.40;22.10;;;;;;;;;;10084912;28;20055;-66
2022/09/01 01:15:08;;;;;;;23.95;22.55;;;;;;;;;;10080355;28;20473;-67
2022/09/01 01:25:21;;;;;;;25.88;24.48;;;;;;;;;;10085571;28;20142;-66
2022/09/01 01:30:18;;;;;;;28.23;26.73;;;;;;;;;;10103523;28;20074;-67
2022/09/01 01:35:15;;;;;;;28.02;26.52;;;;;;;;;;10084009;28;20561;-66
2022/09/01 01:40:14;;;;;;;28.35;26.85;;;;;;;;;;10085349;28;20090;-67
2022/09/01 01:45:14;;;;;;;32.30;30.58;;;;;;;;;;10073577;28;20512;-67
2022/09/01 01:50:11;;;;;;;35.00;33.20;;;;;;;;;;10075296;28;20137;-67
2022/09/01 01:55:11;;;;;;;36.10;34.30;;;;;;;;;;10081875;28;20468;-67
2022/09/01 02:00:10;;;;;;;33.50;31.77;;;;;;;;;;10075465;28;20051;-67
2022/09/01 02:05:07;;;;;;;36.97;34.97;;;;;;;;;;10082746;28;20051;-67
2022/09/01 02:10:04;;;;;;;38.60;36.70;;;;;;;;;;10073354;28;20516;-67
2022/09/01 02:15:01;;;;;;;40.00;38.00;;;;;;;;;;10064385;28;20087;-67
2022/09/01 02:19:58;;;;;;;41.63;39.38;;;;;;;;;;10088507;28;20054;-66
2022/09/01 02:24:56;;;;;;;43.10;40.67;;;;;;;;;;10081743;28;20078;-66
2022/09/01 02:29:54;;;;;;;45.97;43.53;;;;;;;;;;10071927;28;20089;-65
2022/09/01 02:34:52;;;;;;;46.75;44.30;;;;;;;;;;10073051;28;20055;-67
2022/09/01 02:39:48;;;;;;;49.17;46.55;;;;;;;;;;10076666;28;20054;-67
2022/09/01 02:44:45;;;;;;;48.90;46.45;;;;;;;;;;10081793;28;20078;-67
2022/09/01 02:49:41;;;;;;;51.00;48.30;;;;;;;;;;10100924;28;20090;-66
2022/09/01 02:54:38;;;;;;;49.88;47.28;;;;;;;;;;10089749;28;20051;-66
2022/09/01 02:59:34;;;;;;;50.83;48.03;;;;;;;;;;10082395;28;20051;-66
2022/09/01 03:04:34;;;;;;;44.75;42.53;;;;;;;;;;10099169;28;20046;-66
2022/09/01 03:09:34;;;;;;;44.28;42.05;;;;;;;;;;10086162;28;20785;-66
2022/09/01 03:14:31;;;;;;;47.13;44.63;;;;;;;;;;10079669;28;20509;-66
2022/09/01 03:19:31;;;;;;;44.38;42.03;;;;;;;;;;10094487;28;20462;-66
2022/09/01 03:24:27;;;;;;;53.70;51.03;;;;;;;;;;10072043;28;20506;-67
2022/09/01 03:29:23;;;;;;;53.58;50.92;;;;;;;;;;10095304;28;20589;-67
2022/09/01 03:34:22;;;;;;;57.65;54.80;;;;;;;;;;10078473;28;20043;-66
2022/09/01 03:39:18;;;;;;;57.33;54.45;;;;;;;;;;10080198;28;20385;-66
2022/09/01 03:44:15;;;;;;;55.85;53.10;;;;;;;;;;10070704;28;20051;-67
2022/09/01 03:49:14;;;;;;;59.40;56.25;;;;;;;;;;10084915;28;20047;-66
2022/09/01 03:54:11;;;;;;;61.35;58.08;;;;;;;;;;10084731;28;20077;-66
2022/09/01 03:59:12;;;;;;;64.88;61.58;;;;;;;;;;10080584;28;20118;-66
2022/09/01 04:04:12;;;;;;;73.25;69.63;;;;;;;;;;10085678;28;20073;-66
2022/09/01 04:09:09;;;;;;;71.72;68.15;;;;;;;;;;10078401;28;20524;-66
2022/09/01 04:14:06;;;;;;;65.82;62.42;;;;;;;;;;10082546;28;20600;-66
2022/09/01 04:19:14;;;;;;;69.32;65.88;;;;;;;;;;10078298;28;20464;-66
2022/09/01 04:24:13;;;;;;;72.43;68.72;;;;;;;;;;10074603;28;20673;-65
2022/09/01 04:29:10;;;;;;;80.28;76.40;;;;;;;;;;10091999;28;20043;-66
2022/09/01 04:34:10;;;;;;;74.57;70.78;;;;;;;;;;10097420;28;20047;-66
2022/09/01 04:39:08;;;;;;;72.15;68.60;;;;;;;;;;10084556;28;20145;-66
2022/09/01 04:44:08;;;;;;;74.05;70.28;;;;;;;;;;10064648;28;20149;-66
2022/09/01 04:49:08;;;;;;;75.88;72.05;;;;;;;;;;10046057;28;20746;-66
2022/09/01 04:54:11;;;;;;;80.45;76.38;;;;;;;;;;10060043;28;20127;-66
2022/09/01 04:59:09;;;;;;;75.40;71.30;;;;;;;;;;10073606;28;20402;-66
2022/09/01 05:04:06;;;;;;;85.97;81.07;;;;;;;;;;10079147;28;20553;-66
2022/09/01 05:09:02;;;;;;;83.03;78.20;;;;;;;;;;10070701;28;20078;-67
2022/09/01 05:13:58;;;;;;;86.47;81.70;;;;;;;;;;10073689;28;20050;-67
2022/09/01 05:18:55;;;;;;;81.22;76.78;;;;;;;;;;10077243;28;20055;-67
2022/09/01 05:23:53;;;;;;;81.35;76.88;;;;;;;;;;10071290;28;20054;-67
2022/09/01 05:28:52;;;;;;;79.18;74.85;;;;;;;;;;10077192;28;20133;-67
2022/09/01 05:33:49;;;;;;;84.88;79.95;;;;;;;;;;10074261;28;20077;-67
2022/09/01 05:38:46;;;;;;;83.85;79.10;;;;;;;;;;10071617;28;20117;-68
2022/09/01 05:43:49;;;;;;;85.35;80.68;;;;;;;;;;10078813;28;20101;-68
2022/09/01 05:48:48;;;;;;;88.82;83.63;;;;;;;;;;10057867;28;20138;-67
2022/09/01 05:53:45;;;;;;;89.00;84.03;;;;;;;;;;10061564;28;20757;-67
2022/09/01 05:58:47;;;;;;;85.88;80.90;;;;;;;;;;10065862;28;20070;-68
2022/09/01 06:04:05;;;;;;;89.28;84.10;;;;;;;;;;10078161;28;20047;-68
2022/09/01 06:09:02;;;;;;;88.18;83.13;;;;;;;;;;10067756;28;20071;-67
2022/09/01 06:13:59;;;;;;;88.78;83.88;;;;;;;;;;10075039;28;20727;-67
2022/09/01 06:18:58;;;;;;;87.30;82.40;;;;;;;;;;10071942;28;20051;-67
2022/09/01 06:23:55;;;;;;;86.47;81.80;;;;;;;;;;10081224;28;20140;-67
2022/09/01 06:28:53;;;;;;;86.55;81.70;;;;;;;;;;10080954;28;20047;-67
2022/09/01 06:33:52;;;;;;;87.30;82.43;;;;;;;;;;10080518;28;20649;-66
2022/09/01 06:38:50;;;;;;;91.00;85.80;;;;;;;;;;10063583;28;20047;-67
2022/09/01 06:43:48;;;;;;;90.43;84.95;;;;;;;;;;10070029;28;20063;-67
2022/09/01 06:48:45;;;;;;;85.68;80.97;;;;;;;;;;10069788;28;20047;-67
2022/09/01 06:53:42;;;;;;;85.25;80.50;;;;;;;;;;10072424;28;20120;-68
2022/09/01 06:58:40;;;;;;;82.75;78.05;;;;;;;;;;10073086;28;20129;-68
2022/09/01 07:03:38;;;;;;;86.10;81.40;;;;;;;;;;10075330;28;20075;-68
2022/09/01 07:08:38;;;;;;;79.45;75.10;;;;;;;;;;10072756;28;20580;-68
2022/09/01 07:13:56;;;;;;;69.95;65.82;;;;;;;;;;10075659;28;20145;-68
2022/09/01 07:19:13;;;;;;;63.58;60.00;;;;;;;;;;10069963;28;20086;-67
2022/09/01 07:24:11;;;;;;;46.70;44.05;;;;;;;;;;10086469;28;20703;-68
2022/09/01 07:29:08;;;;;;;45.85;43.25;;;;;;;;;;10070691;28;20043;-68
2022/09/01 07:34:07;;;;;;;40.28;37.92;;;;;;;;;;10073184;28;20051;-68
2022/09/01 07:39:23;;;;;;;36.35;34.25;;;;;;;;;;10076287;28;20493;-68
2022/09/01 07:44:40;;;;;;;33.33;31.08;;;;;;;;;;10068085;28;20113;-68
2022/09/01 07:49:39;;;;;;;22.20;20.90;;;;;;;;;;10066682;28;20543;-68
2022/09/01 07:54:56;;;;;;;19.42;18.33;;;;;;;;;;10075761;28;20063;-68
2022/09/01 07:59:54;;;;;;;15.80;14.90;;;;;;;;;;10094343;28;20112;-68
2022/09/01 08:04:50;;;;;;;12.45;11.55;;;;;;;;;;10081369;28;20051;-68
2022/09/01 08:09:47;;;;;;;12.20;11.40;;;;;;;;;;10077581;28;20146;-68
2022/09/01 08:14:44;;;;;;;11.35;10.65;;;;;;;;;;10067587;28;20059;-68
2022/09/01 08:19:42;;;;;;;11.18;10.48;;;;;;;;;;10077320;28;20134;-68
2022/09/01 08:24:39;;;;;;;9.77;9.18;;;;;;;;;;10075650;28;20042;-68
2022/09/01 08:29:35;;;;;;;9.80;9.20;;;;;;;;;;10085996;28;20145;-68
2022/09/01 08:34:32;;;;;;;10.52;9.73;;;;;;;;;;10069531;28;20541;-68
2022/09/01 08:39:29;;;;;;;9.82;9.13;;;;;;;;;;10066775;28;20166;-68
2022/09/01 08:44:38;;;;;;;9.63;9.00;;;;;;;;;;10070586;28;20134;-68
2022/09/01 08:49:35;;;;;;;10.38;9.57;;;;;;;;;;10067026;28;20567;-68
2022/09/01 08:54:48;;;;;;;9.77;9.07;;;;;;;;;;10080000;28;20592;-68
2022/09/01 08:59:45;;;;;;;9.27;8.57;;;;;;;;;;10071610;28;20135;-68
2022/09/01 09:05:00;;;;;;;9.85;9.25;;;;;;;;;;10076128;28;20146;-68
2022/09/01 09:10:01;;;;;;;9.27;8.57;;;;;;;;;;10060456;28;20051;-68
2022/09/01 09:15:15;;;;;;;9.90;9.10;;;;;;;;;;10079236;28;20576;-68
2022/09/01 09:20:11;;;;;;;9.23;8.63;;;;;;;;;;10076968;28;20134;-68
2022/09/01 09:25:10;;;;;;;9.63;9.02;;;;;;;;;;10089577;28;20047;-68
2022/09/01 09:30:17;;;;;;;9.40;8.70;;;;;;;;;;10066890;28;20039;-68
2022/09/01 09:35:29;;;;;;;8.80;8.23;;;;;;;;;;10072852;28;20153;-68
2022/09/01 09:40:25;;;;;;;9.15;8.50;;;;;;;;;;10075407;28;20097;-68
2022/09/01 09:45:26;;;;;;;9.65;9.05;;;;;;;;;;10064801;28;20081;-68
2022/09/01 09:50:30;;;;;;;8.80;8.20;;;;;;;;;;10071893;28;20138;-68
2022/09/01 09:55:28;;;;;;;8.68;8.15;;;;;;;;;;10085380;28;20089;-68
2022/09/01 10:00:26;;;;;;;8.85;8.30;;;;;;;;;;10091624;28;20113;-67
2022/09/01 10:05:41;;;;;;;9.23;8.63;;;;;;;;;;10095306;28;20097;-67
2022/09/01 10:10:41;;;;;;;9.02;8.43;;;;;;;;;;10068454;28;20051;-67
2022/09/01 10:15:37;;;;;;;9.68;8.82;;;;;;;;;;10078277;28;20122;-67
2022/09/01 10:20:35;;;;;;;8.95;8.25;;;;;;;;;;10079896;28;20047;-68
2022/09/01 10:25:33;;;;;;;8.77;7.97;;;;;;;;;;10081138;28;20134;-68
2022/09/01 10:30:30;;;;;;;8.63;8.13;;;;;;;;;;10085397;28;20118;-68
2022/09/01 10:35:33;;;;;;;8.52;7.93;;;;;;;;;;10078108;28;20491;-68
2022/09/01 10:40:32;;;;;;;9.02;8.43;;;;;;;;;;10076846;28;20497;-68
2022/09/01 10:45:37;;;;;;;8.70;8.10;;;;;;;;;;10086197;28;20097;-70
2022/09/01 10:50:34;;;;;;;9.25;8.55;;;;;;;;;;10053496;28;20048;-68
2022/09/01 10:55:37;;;;;;;9.27;8.68;;;;;;;;;;10078164;28;20050;-68
2022/09/01 11:00:33;;;;;;;9.55;8.65;;;;;;;;;;10067017;28;20482;-68
2022/09/01 11:05:50;;;;;;;9.50;8.48;;;;;;;;;;10086647;28;20592;-68
2022/09/01 11:11:03;;;;;;;8.70;8.20;;;;;;;;;;10070843;28;20571;-68
2022/09/01 11:16:19;;;;;;;8.40;7.88;;;;;;;;;;10075775;28;20475;-68
2022/09/01 11:21:38;;;;;;;8.93;8.43;;;;;;;;;;10084121;28;20856;-68
2022/09/01 11:26:34;;;;;;;8.32;7.60;;;;;;;;;;10084317;28;20093;-68
2022/09/01 11:31:36;;;;;;;9.38;8.68;;;;;;;;;;10084816;28;20047;-68
2022/09/01 11:36:47;;;;;;;8.35;7.75;;;;;;;;;;10071734;28;20050;-68
2022/09/01 11:41:55;;;;;;;7.85;7.35;;;;;;;;;;10076383;28;20521;-68
2022/09/01 11:47:01;;;;;;;8.50;7.90;;;;;;;;;;10080876;28;20051;-68
2022/09/01 11:51:59;;;;;;;8.90;8.30;;;;;;;;;;10081244;28;20130;-68
2022/09/01 11:56:55;;;;;;;8.85;8.15;;;;;;;;;;10079983;28;20109;-68
2022/09/01 12:01:56;;;;;;;8.77;8.02;;;;;;;;;;10079980;28;20051;-68
2022/09/01 12:06:58;;;;;;;8.95;8.35;;;;;;;;;;10079461;28;20051;-68
2022/09/01 12:11:55;;;;;;;8.60;8.00;;;;;;;;;;10078589;28;20074;-69
2022/09/01 12:16:56;;;;;;;8.45;7.85;;;;;;;;;;10088542;28;20568;-68
2022/09/01 12:21:58;;;;;;;8.63;8.02;;;;;;;;;;10078131;28;20053;-68
2022/09/01 12:26:57;;;;;;;8.30;7.80;;;;;;;;;;10087530;28;20050;-68
2022/09/01 12:31:54;;;;;;;8.88;8.27;;;;;;;;;;10093645;28;20043;-68
2022/09/01 12:37:03;;;;;;;9.40;8.80;;;;;;;;;;10082616;28;20501;-69
2022/09/01 12:42:01;;;;;;;8.70;8.10;;;;;;;;;;10073439;28;20495;-69
2022/09/01 12:46:59;;;;;;;8.77;8.27;;;;;;;;;;10080402;28;20035;-69
2022/09/01 12:52:15;;;;;;;9.27;8.57;;;;;;;;;;10073661;28;20074;-69
2022/09/01 12:57:26;;;;;;;9.38;8.68;;;;;;;;;;10092366;28;20419;-69
2022/09/01 13:02:42;;;;;;;8.80;8.23;;;;;;;;;;10077314;28;20133;-68
2022/09/01 13:07:39;;;;;;;8.90;8.30;;;;;;;;;;10074793;28;20484;-68
2022/09/01 13:12:40;;;;;;;8.40;7.90;;;;;;;;;;10069771;28;20505;-68
2022/09/01 13:17:37;;;;;;;8.65;7.90;;;;;;;;;;10075270;28;20081;-68
2022/09/01 13:22:34;;;;;;;8.77;8.20;;;;;;;;;;10083520;28;20587;-68
2022/09/01 13:27:30;;;;;;;9.35;8.65;;;;;;;;;;10080477;28;20066;-68
2022/09/01 13:32:26;;;;;;;9.90;9.00;;;;;;;;;;10082413;28;20142;-68
2022/09/01 13:37:23;;;;;;;9.70;9.00;;;;;;;;;;10077208;28;20081;-68
2022/09/01 13:42:19;;;;;;;9.63;8.93;;;;;;;;;;10095352;28;20612;-68
2022/09/01 13:47:16;;;;;;;9.32;8.73;;;;;;;;;;10062854;28;20287;-68
2022/09/01 13:52:28;;;;;;;8.80;8.13;;;;;;;;;;10070370;28;20050;-68
2022/09/01 13:57:25;;;;;;;9.40;8.65;;;;;;;;;;10079641;28;20523;-69
2022/09/01 14:02:26;;;;;;;9.00;8.30;;;;;;;;;;10075686;28;20092;-68
2022/09/01 14:07:22;;;;;;;9.15;8.40;;;;;;;;;;10081807;28;20046;-68
2022/09/01 14:12:19;;;;;;;8.50;7.93;;;;;;;;;;10073307;28;20056;-68
2022/09/01 14:17:15;;;;;;;8.60;8.10;;;;;;;;;;10074127;28;20138;-68
2022/09/01 14:22:11;;;;;;;10.00;9.38;;;;;;;;;;10074447;28;20142;-67
2022/09/01 14:27:07;;;;;;;8.93;8.32;;;;;;;;;;10074698;28;20063;-68
2022/09/01 14:32:06;;;;;;;8.15;7.55;;;;;;;;;;10080660;28;20567;-68
2022/09/01 14:37:03;;;;;;;5.95;5.50;;;;;;;;;;10096681;28;20049;-68
2022/09/01 14:41:59;;;;;;;6.22;5.82;;;;;;;;;;10095291;28;20063;-68
2022/09/01 14:46:56;;;;;;;6.25;5.85;;;;;;;;;;10082432;28;20767;-68
2022/09/01 14:51:54;;;;;;;6.60;6.10;;;;;;;;;;10079791;28;20112;-68
2022/09/01 14:57:06;;;;;;;6.10;5.60;;;;;;;;;;10074356;28;20047;-68
2022/09/01 15:02:24;;;;;;;5.82;5.32;;;;;;;;;;10083284;28;20423;-68
2022/09/01 15:07:20;;;;;;;6.45;6.05;;;;;;;;;;10073386;28;20158;-68
2022/09/01 15:12:16;;;;;;;6.88;6.10;;;;;;;;;;10064764;28;20138;-68
2022/09/01 15:17:13;;;;;;;6.97;6.38;;;;;;;;;;10104798;28;20126;-68
2022/09/01 15:22:11;;;;;;;6.75;6.20;;;;;;;;;;10065374;28;20079;-68
2022/09/01 15:27:10;;;;;;;7.50;6.78;;;;;;;;;;10077323;28;20134;-68
2022/09/01 15:32:06;;;;;;;7.90;7.35;;;;;;;;;;10072840;28;20043;-68
2022/09/01 15:37:03;;;;;;;7.78;7.18;;;;;;;;;;10072675;28;20105;-68
2022/09/01 15:42:01;;;;;;;6.80;6.30;;;;;;;;;;10069700;28;20785;-69
2022/09/01 15:46:58;;;;;;;6.80;6.20;;;;;;;;;;10052410;28;20053;-69
2022/09/01 15:51:54;;;;;;;7.28;6.78;;;;;;;;;;10080426;28;20051;-68
2022/09/01 15:56:51;;;;;;;7.75;7.05;;;;;;;;;;10085755;28;20552;-68
2022/09/01 16:01:47;;;;;;;7.35;6.70;;;;;;;;;;10073933;28;20049;-68
2022/09/01 16:06:43;;;;;;;6.80;6.30;;;;;;;;;;10067572;28;20069;-68
2022/09/01 16:11:40;;;;;;;7.45;6.95;;;;;;;;;;10094747;28;20075;-68
2022/09/01 16:16:55;;;;;;;7.38;6.88;;;;;;;;;;10071380;28;20134;-68
2022/09/01 16:22:10;;;;;;;7.07;6.45;;;;;;;;;;10062725;28;20525;-67
2022/09/01 16:27:09;;;;;;;7.10;6.57;;;;;;;;;;10089696;28;20128;-68
2022/09/01 16:32:05;;;;;;;6.90;6.40;;;;;;;;;;10091026;28;20119;-68
2022/09/01 16:37:09;;;;;;;7.20;6.70;;;;;;;;;;10065737;28;20553;-68
2022/09/01 16:42:20;;;;;;;7.00;6.50;;;;;;;;;;10094799;28;20074;-68
2022/09/01 16:47:17;;;;;;;6.37;5.97;;;;;;;;;;10071576;28;20700;-67
2022/09/01 16:52:16;;;;;;;6.53;6.03;;;;;;;;;;10082519;28;20630;-68
2022/09/01 16:57:18;;;;;;;7.07;6.47;;;;;;;;;;10087058;28;20055;-68
2022/09/01 17:02:14;;;;;;;6.90;6.30;;;;;;;;;;10087795;28;20520;-68
2022/09/01 17:07:19;;;;;;;6.70;6.20;;;;;;;;;;10055773;28;20043;-69
2022/09/01 17:12:29;;;;;;;6.90;6.30;;;;;;;;;;10074059;28;20045;-68
2022/09/01 17:17:36;;;;;;;7.07;6.57;;;;;;;;;;10075851;28;20072;-68
2022/09/01 17:22:32;;;;;;;6.20;5.70;;;;;;;;;;10074780;28;20108;-68
2022/09/01 17:27:35;;;;;;;6.60;6.10;;;;;;;;;;10067649;28;20051;-68
2022/09/01 17:32:41;;;;;;;6.57;6.07;;;;;;;;;;10056053;28;20774;-68
2022/09/01 17:38:03;;;;;;;6.25;5.65;;;;;;;;;;10077173;28;20055;-68
2022/09/01 17:43:01;;;;;;;6.72;6.15;;;;;;;;;;10076452;28;20642;-68
2022/09/01 17:48:04;;;;;;;8.90;6.35;;;;;;;;;;10078596;28;20475;-68
2022/09/01 17:53:01;;;;;;;7.22;6.63;;;;;;;;;;10072908;28;20440;-68
2022/09/01 17:58:11;;;;;;;6.20;5.80;;;;;;;;;;10068498;28;20044;-68
2022/09/01 18:03:17;;;;;;;6.05;5.65;;;;;;;;;;10060072;28;20139;-68
2022/09/01 18:08:20;;;;;;;6.13;5.70;;;;;;;;;;10054824;28;20050;-68
2022/09/01 18:13:37;;;;;;;6.40;5.90;;;;;;;;;;10073134;28;20488;-68
2022/09/01 18:18:49;;;;;;;5.60;5.20;;;;;;;;;;10094502;28;20047;-67
2022/09/01 18:23:48;;;;;;;7.20;5.35;;;;;;;;;;10067217;28;20047;-68
2022/09/01 18:28:45;;;;;;;5.78;5.38;;;;;;;;;;10080268;28;20374;-68
2022/09/01 18:34:04;;;;;;;5.63;5.22;;;;;;;;;;10087961;28;20449;-68
2022/09/01 18:39:07;;;;;;;5.57;5.07;;;;;;;;;;10064939;28;20074;-68
2022/09/01 18:44:06;;;;;;;6.45;5.75;;;;;;;;;;10075816;28;20436;-68
2022/09/01 18:49:08;;;;;;;6.50;6.00;;;;;;;;;;10071240;28;20398;-68
2022/09/01 18:54:10;;;;;;;5.75;5.25;;;;;;;;;;10102122;28;20077;-68
2022/09/01 18:59:16;;;;;;;5.82;5.43;;;;;;;;;;10076587;28;20047;-68
2022/09/01 19:04:12;;;;;;;5.95;5.45;;;;;;;;;;10094161;28;20599;-68
2022/09/01 19:09:20;;;;;;;5.95;5.45;;;;;;;;;;10082188;28;20036;-68
2022/09/01 19:14:28;;;;;;;6.00;5.50;;;;;;;;;;10077230;28;20059;-68
2022/09/01 19:19:51;;;;;;;7.22;5.93;;;;;;;;;;10059209;28;20059;-67
2022/09/01 19:30:22;;;;;;;6.30;5.40;;;;;;;;;;10077813;28;20052;-67
2022/09/01 19:35:19;;;;;;;5.32;4.93;;;;;;;;;;10071107;28;20475;-67
2022/09/01 19:40:17;;;;;;;5.63;5.18;;;;;;;;;;10067680;28;20113;-66
2022/09/01 19:45:26;;;;;;;5.40;5.00;;;;;;;;;;10065609;28;20075;-66
2022/09/01 19:50:30;;;;;;;5.55;5.05;;;;;;;;;;10077698;28;20545;-67
2022/09/01 19:55:30;;;;;;;5.20;4.80;;;;;;;;;;10084939;28;20055;-67
2022/09/01 20:00:33;;;;;;;5.63;5.20;;;;;;;;;;10072571;28;20047;-67
2022/09/01 20:05:40;;;;;;;5.50;5.00;;;;;;;;;;10064473;28;20135;-66
2022/09/01 20:10:46;;;;;;;8.68;5.55;;;;;;;;;;10073347;28;20083;-66
2022/09/01 20:15:51;;;;;;;6.75;4.60;;;;;;;;;;10065574;28;20047;-66
2022/09/01 20:20:49;;;;;;;5.57;4.88;;;;;;;;;;10086986;28;20047;-67
2022/09/01 20:25:52;;;;;;;5.32;4.93;;;;;;;;;;10075918;28;20086;-67
2022/09/01 20:30:53;;;;;;;8.85;5.00;;;;;;;;;;10087546;28;20049;-67
2022/09/01 20:35:53;;;;;;;5.40;4.90;;;;;;;;;;10066173;28;20050;-67
2022/09/01 20:40:50;;;;;;;5.55;5.05;;;;;;;;;;10081601;28;20573;-68
2022/09/01 20:45:46;;;;;;;4.80;4.40;;;;;;;;;;10064036;28;20097;-67
2022/09/01 20:50:45;;;;;;;5.15;4.75;;;;;;;;;;10083242;28;20720;-67
2022/09/01 20:55:52;;;;;;;5.03;4.53;;;;;;;;;;10078224;28;20117;-67
2022/09/01 21:01:09;;;;;;;5.35;4.95;;;;;;;;;;10078149;28;20043;-67
2022/09/01 21:06:10;;;;;;;5.95;4.68;;;;;;;;;;10071385;28;20042;-67
2022/09/01 21:11:10;;;;;;;5.43;4.93;;;;;;;;;;10074030;28;21114;-67
2022/09/01 21:16:14;;;;;;;4.80;4.40;;;;;;;;;;10091341;28;20046;-67
2022/09/01 21:21:19;;;;;;;7.38;5.25;;;;;;;;;;10096967;28;20090;-67
2022/09/01 21:26:16;;;;;;;6.68;4.68;;;;;;;;;;10075161;28;20077;-67
2022/09/01 21:31:12;;;;;;;5.20;4.70;;;;;;;;;;10081026;28;20480;-67
2022/09/01 21:36:08;;;;;;;6.38;5.07;;;;;;;;;;10074884;28;20133;-67
2022/09/01 21:41:05;;;;;;;5.40;5.00;;;;;;;;;;10079984;28;20137;-66
2022/09/01 21:46:08;;;;;;;5.70;5.00;;;;;;;;;;10077088;28;20557;-66
2022/09/01 21:51:04;;;;;;;6.50;5.82;;;;;;;;;;10091287;28;20051;-67
2022/09/01 21:56:01;;;;;;;5.93;5.43;;;;;;;;;;10084105;28;20043;-66
2022/09/01 22:00:57;;;;;;;5.68;5.18;;;;;;;;;;10079187;28;20145;-66
2022/09/01 22:05:53;;;;;;;6.13;5.60;;;;;;;;;;10079801;28;20050;-67
2022/09/01 22:10:51;;;;;;;5.70;5.20;;;;;;;;;;10071990;28;20453;-66
2022/09/01 22:15:49;;;;;;;6.20;5.70;;;;;;;;;;10104893;28;20127;-66
2022/09/01 22:20:45;;;;;;;6.22;5.72;;;;;;;;;;10105786;28;20059;-66
2022/09/01 22:25:43;;;;;;;5.80;5.40;;;;;;;;;;10070879;28;20122;-67
2022/09/01 22:30:43;;;;;;;5.90;5.32;;;;;;;;;;10082203;28;20048;-67
2022/09/01 22:35:44;;;;;;;6.38;5.88;;;;;;;;;;10076288;28;20137;-66
2022/09/01 22:40:48;;;;;;;5.85;5.45;;;;;;;;;;10099080;28;20098;-68
2022/09/01 22:45:45;;;;;;;6.20;5.70;;;;;;;;;;10083179;28;20508;-66
2022/09/01 22:50:43;;;;;;;6.05;5.63;;;;;;;;;;10081959;28;20665;-66
2022/09/01 22:55:41;;;;;;;6.60;6.10;;;;;;;;;;10078467;28;20535;-66
2022/09/01 23:00:42;;;;;;;6.40;5.90;;;;;;;;;;10081075;28;20109;-66
2022/09/01 23:05:38;;;;;;;6.40;5.80;;;;;;;;;;10079812;28;20077;-66
2022/09/01 23:10:35;;;;;;;6.30;5.80;;;;;;;;;;10084550;28;20070;-66
2022/09/01 23:15:32;;;;;;;6.85;6.28;;;;;;;;;;10071947;28;20043;-66
2022/09/01 23:20:28;;;;;;;6.60;6.10;;;;;;;;;;10077803;28;20453;-66
2022/09/01 23:25:25;;;;;;;6.97;6.43;;;;;;;;;;10084522;28;20082;-67
2022/09/01 23:30:21;;;;;;;6.63;6.10;;;;;;;;;;10121757;28;20159;-66
2022/09/01 23:35:18;;;;;;;6.63;6.13;;;;;;;;;;10075408;28;20075;-67
2022/09/01 23:40:14;;;;;;;6.68;6.18;;;;;;;;;;10087513;28;20079;-66
2022/09/01 23:45:11;;;;;;;6.53;6.07;;;;;;;;;;10088309;28;20043;-66
2022/09/01 23:50:07;;;;;;;6.93;6.38;;;;;;;;;;10087078;28;20137;-66
2022/09/01 23:55:04;;;;;;;6.60;6.10;;;;;;;;;;10081685;28;20445;-67
